createdAt,value
2016-03-15T00:00:49.998Z,66.52
2016-03-15T00:01:49.985Z,66.99
2016-03-15T00:02:49.972Z,66.8
2016-03-15T00:03:49.958Z,66.61
2016-03-15T00:04:49.947Z,66.61
2016-03-15T00:05:49.949Z,67.18
2016-03-15T00:06:49.941Z,67.27
2016-03-15T00:07:49.927Z,67.18
2016-03-15T00:08:49.915Z,67.18
2016-03-15T00:09:49.918Z,67.56
2016-03-15T00:10:49.904Z,67.75
2016-03-15T00:11:49.892Z,67.75
2016-03-15T00:12:49.879Z,67.27
2016-03-15T00:13:49.882Z,67.75
2016-03-15T00:14:49.868Z,67.85
2016-03-15T00:15:49.871Z,68.13
2016-03-15T00:16:49.843Z,68.04
2016-03-15T00:17:49.846Z,67.94
2016-03-15T00:18:49.848Z,67.94
2016-03-15T00:19:49.835Z,68.41
2016-03-15T00:20:49.822Z,68.04
2016-03-15T00:21:49.809Z,68.38
2016-03-15T00:22:49.812Z,68.48
2016-03-15T00:23:49.798Z,68.85
2016-03-15T00:24:49.787Z,69.23
2016-03-15T00:25:49.789Z,69.08
2016-03-15T00:26:49.775Z,69.42
2016-03-15T00:27:49.763Z,69.71
2016-03-15T00:28:49.750Z,69.33
2016-03-15T00:29:49.737Z,70.09
2016-03-15T00:30:49.740Z,69.99
2016-03-15T00:31:49.727Z,69.8
2016-03-15T00:32:49.714Z,69.9
2016-03-15T00:33:49.717Z,70.37
2016-03-15T00:34:49.782Z,70.28
2016-03-15T00:35:49.707Z,70.28
2016-03-15T00:36:49.695Z,70.47
2016-03-15T00:37:49.681Z,70.28
2016-03-15T00:38:49.668Z,70.18
2016-03-15T00:39:49.655Z,70.09
2016-03-15T00:40:49.658Z,70.65
2016-03-15T00:41:49.630Z,70.75
2016-03-15T00:42:49.633Z,70.75
2016-03-15T00:43:51.089Z,71.03
2016-03-15T00:44:49.622Z,71.22
2016-03-15T00:45:50.266Z,71.22
2016-03-15T00:46:50.174Z,71.03
2016-03-15T00:47:49.583Z,70.94
2016-03-15T00:48:49.585Z,70.94
2016-03-15T00:49:49.573Z,71.89
2016-03-15T00:50:49.561Z,72.17
2016-03-15T00:52:49.550Z,73.12
2016-03-15T00:53:49.615Z,73.41
2016-03-15T00:54:49.540Z,72.93
2016-03-15T00:55:50.293Z,73.31
2016-03-15T00:56:49.519Z,74.26
2016-03-15T00:58:03.693Z,74.16
2016-03-15T00:58:50.806Z,74.32
2016-03-15T01:00:49.482Z,74.6
2016-03-15T01:01:49.766Z,75.55
2016-03-15T01:02:49.457Z,75.64
2016-03-15T01:03:49.459Z,75.93
2016-03-15T01:04:49.447Z,76.21
2016-03-15T01:05:49.433Z,76.4
2016-03-15T01:06:49.452Z,75.93
2016-03-15T01:07:50.158Z,76.97
2016-03-15T01:08:49.723Z,76.87
2016-03-15T01:09:49.381Z,76.68
2016-03-15T01:10:49.478Z,77.25
2016-03-15T01:11:49.544Z,77.45
2016-03-15T01:12:49.561Z,78.2
2016-03-15T01:13:49.361Z,77.54
2016-03-15T01:14:49.458Z,77.83
2016-03-15T01:15:49.335Z,78.3
2016-03-15T01:16:49.338Z,78.39
2016-03-15T01:17:49.325Z,78.39
2016-03-15T01:18:49.312Z,78.3
2016-03-15T01:19:49.299Z,78.11
2016-03-15T01:20:49.302Z,78.39
2016-03-15T01:21:49.289Z,78.49
2016-03-15T01:22:49.276Z,78.39
2016-03-15T01:23:49.263Z,78.67
2016-03-15T01:24:49.266Z,78.67
2016-03-15T01:25:49.237Z,78.49
2016-03-15T01:26:49.240Z,78.96
2016-03-15T01:27:49.227Z,79.06
2016-03-15T01:28:49.214Z,78.96
2016-03-15T01:29:49.217Z,78.96
2016-03-15T01:30:49.204Z,79.06
2016-03-15T01:31:49.206Z,78.67
2016-03-15T01:32:49.209Z,78.58
2016-03-15T01:33:49.165Z,78.49
2016-03-15T01:34:49.167Z,78.2
2016-03-15T01:35:49.156Z,78.3
2016-03-15T01:36:49.142Z,78.2
2016-03-15T01:37:49.128Z,78.39
2016-03-15T01:38:49.117Z,78.77
2016-03-15T01:39:49.134Z,79.06
2016-03-15T01:40:49.089Z,78.96
2016-03-15T01:41:49.109Z,78.96
2016-03-15T01:42:49.095Z,79.06
2016-03-15T01:43:49.083Z,78.96
2016-03-15T01:44:49.085Z,79.53
2016-03-15T01:45:49.072Z,79.15
2016-03-15T01:46:49.059Z,79.25
2016-03-15T01:47:49.031Z,79.34
2016-03-15T01:48:49.049Z,79.34
2016-03-15T01:49:49.020Z,80.19
2016-03-15T01:50:49.024Z,80.57
2016-03-15T01:51:49.010Z,80.38
2016-03-15T01:52:48.982Z,80.48
2016-03-15T01:53:48.985Z,80.76
2016-03-15T01:54:48.971Z,80.76
2016-03-15T01:55:48.974Z,81.67
2016-03-15T01:56:48.962Z,81.1
2016-03-15T01:57:48.948Z,81.71
2016-03-15T01:58:48.951Z,81.81
2016-03-15T01:59:48.923Z,82.18
2016-03-15T02:00:48.926Z,82.28
2016-03-15T02:01:48.912Z,82.28
2016-03-15T02:03:49.137Z,82.37
2016-03-15T02:04:49.623Z,82.94
2016-03-15T02:05:49.454Z,82.85
2016-03-15T02:06:49.316Z,82.85
2016-03-15T02:07:48.881Z,82.94
2016-03-15T02:08:48.962Z,83.32
2016-03-15T02:09:48.825Z,82.85
2016-03-15T02:10:49.608Z,83.04
2016-03-15T02:11:48.814Z,83.51
2016-03-15T02:12:48.801Z,83.51
2016-03-15T02:13:48.803Z,83.23
2016-03-15T02:14:49.838Z,83.8
2016-03-15T02:15:48.794Z,83.51
2016-03-15T02:17:49.158Z,83.98
2016-03-15T02:19:48.758Z,83.94
2016-03-15T02:20:48.714Z,84.32
2016-03-15T02:21:48.716Z,83.94
2016-03-15T02:22:48.735Z,84.42
2016-03-15T02:23:48.705Z,84.04
2016-03-15T02:24:48.693Z,83.85
2016-03-15T02:25:48.665Z,84.32
2016-03-15T02:26:48.729Z,84.42
2016-03-15T02:27:49.060Z,84.13
2016-03-15T02:28:48.640Z,84.99
2016-03-15T02:30:02.815Z,84.7
2016-03-15T02:30:48.646Z,84.61
2016-03-15T02:31:48.976Z,84.61
2016-03-15T02:32:48.620Z,85.36
2016-03-15T02:33:48.857Z,84.89
2016-03-15T02:34:48.610Z,85.46
2016-03-15T02:35:48.567Z,85.27
2016-03-15T02:36:48.570Z,85.46
2016-03-15T02:37:48.603Z,85.46
2016-03-15T02:38:48.543Z,85.27
2016-03-15T02:39:48.530Z,85.46
2016-03-15T02:40:48.533Z,85.36
2016-03-15T02:41:48.519Z,86.12
2016-03-15T02:42:48.522Z,86.12
2016-03-15T02:43:48.494Z,86.03
2016-03-15T02:44:48.480Z,86.22
2016-03-15T02:45:48.484Z,86.41
2016-03-15T02:46:48.486Z,86.5
2016-03-15T02:47:48.458Z,86.79
2016-03-15T02:48:48.445Z,86.6
2016-03-15T02:49:48.447Z,87.07
2016-03-15T02:50:48.435Z,86.88
2016-03-15T02:51:48.468Z,86.79
2016-03-15T02:52:48.424Z,86.69
2016-03-15T02:53:48.411Z,86.88
2016-03-15T02:54:48.383Z,87.07
2016-03-15T02:55:48.386Z,87.16
2016-03-15T02:56:48.373Z,87.26
2016-03-15T02:57:48.360Z,86.69
2016-03-15T02:58:48.346Z,87.16
2016-03-15T02:59:48.349Z,87.16
2016-03-15T03:00:48.337Z,87.4
2016-03-15T03:01:48.323Z,87.16
2016-03-15T03:02:48.310Z,87.35
2016-03-15T03:03:48.297Z,87.16
2016-03-15T03:04:48.284Z,87.16
2016-03-15T03:05:48.272Z,86.88
2016-03-15T03:06:48.275Z,87.21
2016-03-15T03:07:48.292Z,87.92
2016-03-15T03:08:48.249Z,87.45
2016-03-15T03:09:48.251Z,87.97
2016-03-15T03:10:48.239Z,88.16
2016-03-15T03:11:48.241Z,88.06
2016-03-15T03:12:48.212Z,87.87
2016-03-15T03:13:48.200Z,87.87
2016-03-15T03:14:48.186Z,88.16
2016-03-15T03:15:48.205Z,88.02
2016-03-15T03:16:48.160Z,88.06
2016-03-15T03:17:48.163Z,87.92
2016-03-15T03:18:48.150Z,87.92
2016-03-15T03:19:48.152Z,88.49
2016-03-15T03:20:50.172Z,88.21
2016-03-15T03:21:49.519Z,88.3
2016-03-15T03:22:48.161Z,88.82
2016-03-15T03:23:48.992Z,88.59
2016-03-15T03:24:48.120Z,88.49
2016-03-15T03:25:48.107Z,88.59
2016-03-15T03:26:48.079Z,88.59
2016-03-15T03:27:48.065Z,88.68
2016-03-15T03:28:48.052Z,88.59
2016-03-15T03:29:48.368Z,88.21
2016-03-15T03:30:49.605Z,88.3
2016-03-15T03:31:47.873Z,88.3
2016-03-15T03:32:48.015Z,87.97
2016-03-15T03:33:48.832Z,88.49
2016-03-15T03:34:47.990Z,88.59
2016-03-15T03:35:49.024Z,88.4
2016-03-15T03:36:48.465Z,88.59
2016-03-15T03:38:02.904Z,89.29
2016-03-15T03:38:47.954Z,89.11
2016-03-15T03:39:49.004Z,88.78
2016-03-15T03:40:47.928Z,89.01
2016-03-15T03:41:48.384Z,89.11
2016-03-15T03:42:47.917Z,88.92
2016-03-15T03:43:47.920Z,89.11
2016-03-15T03:44:47.892Z,89.11
2016-03-15T03:45:47.926Z,89.11
2016-03-15T03:46:47.866Z,89.11
2016-03-15T03:47:47.853Z,89.11
2016-03-15T03:48:48.294Z,89.58
2016-03-15T03:50:47.830Z,89.67
2016-03-15T03:51:47.833Z,89.48
2016-03-15T03:52:47.820Z,89.48
2016-03-15T03:53:47.822Z,89.58
2016-03-15T03:54:47.794Z,89.58
2016-03-15T03:55:47.781Z,89.11
2016-03-15T03:56:47.769Z,89.39
2016-03-15T03:57:47.755Z,89.29
2016-03-15T03:58:47.757Z,89.86
2016-03-15T03:59:47.746Z,89.86
2016-03-15T04:00:47.732Z,89.86
2016-03-15T04:01:47.719Z,89.77
2016-03-15T04:02:47.722Z,89.86
2016-03-15T04:03:47.693Z,89.96
2016-03-15T04:04:47.696Z,89.86
2016-03-15T04:05:47.683Z,89.96
2016-03-15T04:06:47.670Z,89.77
2016-03-15T04:07:47.656Z,89.77
2016-03-15T04:08:47.645Z,89.96
2016-03-15T04:09:47.647Z,89.58
2016-03-15T04:10:47.634Z,89.58
2016-03-15T04:11:47.637Z,90.24
2016-03-15T04:12:47.608Z,89.86
2016-03-15T04:13:47.611Z,90.24
2016-03-15T04:14:47.583Z,90.43
2016-03-15T04:15:47.600Z,90.24
2016-03-15T04:16:47.572Z,89.86
2016-03-15T04:17:47.559Z,90.34
2016-03-15T04:18:47.561Z,90.24
2016-03-15T04:19:47.550Z,90.24
2016-03-15T04:20:47.541Z,89.96
2016-03-15T04:21:47.512Z,89.86
2016-03-15T04:22:47.515Z,90.34
2016-03-15T04:23:47.502Z,89.96
2016-03-15T04:24:47.489Z,89.96
2016-03-15T04:25:47.476Z,89.86
2016-03-15T04:26:47.494Z,90.05
2016-03-15T04:27:47.465Z,89.86
2016-03-15T04:28:47.469Z,89.86
2016-03-15T04:29:47.440Z,89.96
2016-03-15T04:30:47.442Z,89.67
2016-03-15T04:31:47.430Z,89.67
2016-03-15T04:32:47.417Z,89.77
2016-03-15T04:33:47.404Z,90.05
2016-03-15T04:34:47.395Z,89.86
2016-03-15T04:35:47.397Z,90.34
2016-03-15T04:36:47.368Z,89.86
2016-03-15T04:37:47.388Z,90.05
2016-03-15T04:38:47.358Z,90.05
2016-03-15T04:39:48.846Z,89.67
2016-03-15T04:40:48.286Z,90.24
2016-03-15T04:41:47.335Z,90.15
2016-03-15T04:42:47.869Z,90.24
2016-03-15T04:43:47.966Z,90.43
2016-03-15T04:44:47.921Z,90.34
2016-03-15T04:45:47.284Z,90.43
2016-03-15T04:46:47.271Z,90.43
2016-03-15T04:47:47.273Z,90.24
2016-03-15T04:48:47.246Z,90.43
2016-03-15T04:49:48.498Z,90.15
2016-03-15T04:50:47.250Z,90.91
2016-03-15T04:51:47.238Z,90.81
2016-03-15T04:52:47.240Z,90.62
2016-03-15T04:53:47.336Z,90.53
2016-03-15T04:55:47.639Z,90.81
2016-03-15T04:56:47.188Z,90.91
2016-03-15T04:57:47.160Z,90.34
2016-03-15T04:58:47.162Z,90.62
2016-03-15T05:00:01.336Z,90.43
2016-03-15T05:00:47.122Z,91
2016-03-15T05:01:47.155Z,90.62
2016-03-15T05:02:47.126Z,90.72
2016-03-15T05:03:47.130Z,90.81
2016-03-15T05:04:47.100Z,90.62
2016-03-15T05:05:47.103Z,90.81
2016-03-15T05:06:47.075Z,90.62
2016-03-15T05:08:01.249Z,90.72
2016-03-15T05:08:47.049Z,90.53
2016-03-15T05:09:47.067Z,90.72
2016-03-15T05:10:47.038Z,90.72
2016-03-15T05:11:47.135Z,90.91
2016-03-15T05:12:47.029Z,90.43
2016-03-15T05:13:47.015Z,90.62
2016-03-15T05:14:47.002Z,90.62
2016-03-15T05:15:47.005Z,90.43
2016-03-15T05:16:46.992Z,91
2016-03-15T05:17:46.979Z,90.91
2016-03-15T05:18:46.966Z,90.81
2016-03-15T05:19:46.953Z,90.91
2016-03-15T05:20:46.940Z,91.47
2016-03-15T05:21:46.943Z,91.28
2016-03-15T05:22:46.930Z,91.19
2016-03-15T05:23:46.918Z,91.57
2016-03-15T05:24:46.904Z,91.09
2016-03-15T05:25:46.891Z,91.19
2016-03-15T05:26:46.895Z,91.09
2016-03-15T05:27:46.881Z,90.91
2016-03-15T05:28:46.868Z,91
2016-03-15T05:29:46.855Z,90.91
2016-03-15T05:30:46.842Z,91.09
2016-03-15T05:31:46.845Z,91.19
2016-03-15T05:32:46.817Z,91.19
2016-03-15T05:33:46.819Z,91
2016-03-15T05:34:46.806Z,91
2016-03-15T05:35:46.794Z,91.09
2016-03-15T05:36:46.780Z,91
2016-03-15T05:37:46.767Z,91.66
2016-03-15T05:38:46.769Z,90.81
2016-03-15T05:39:46.757Z,90.81
2016-03-15T05:40:46.744Z,91.57
2016-03-15T05:41:46.732Z,91.66
2016-03-15T05:42:46.718Z,91.85
2016-03-15T05:43:46.721Z,91.66
2016-03-15T05:44:46.708Z,91.57
2016-03-15T05:45:46.710Z,91.66
2016-03-15T05:46:46.682Z,91.76
2016-03-15T05:47:46.684Z,91.57
2016-03-15T05:48:46.657Z,91.57
2016-03-15T05:49:46.659Z,91.28
2016-03-15T05:50:46.646Z,91.28
2016-03-15T05:51:46.649Z,91.28
2016-03-15T05:52:46.636Z,91.28
2016-03-15T05:53:46.623Z,91.85
2016-03-15T05:54:46.610Z,91.85
2016-03-15T05:55:46.597Z,91.95
2016-03-15T05:56:46.584Z,91.95
2016-03-15T05:57:46.587Z,92.04
2016-03-15T05:58:47.698Z,91.85
2016-03-15T05:59:47.545Z,91.95
2016-03-15T06:00:46.611Z,92.04
2016-03-15T06:01:46.550Z,91.76
2016-03-15T06:02:46.538Z,91.76
2016-03-15T06:03:46.525Z,91.76
2016-03-15T06:04:46.902Z,91.85
2016-03-15T06:05:46.514Z,91.85
2016-03-15T06:06:46.480Z,91.95
2016-03-15T06:07:46.795Z,91.57
2016-03-15T06:08:46.439Z,92.14
2016-03-15T06:09:46.520Z,91.57
2016-03-15T06:10:46.726Z,91.95
2016-03-15T06:11:46.515Z,91.95
2016-03-15T06:12:46.356Z,91.95
2016-03-15T06:13:47.431Z,92.04
2016-03-15T06:14:46.990Z,92.04
2016-03-15T06:15:46.315Z,91.85
2016-03-15T06:16:46.315Z,91.85
2016-03-15T06:17:46.284Z,91.76
2016-03-15T06:18:46.284Z,91.76
2016-03-15T06:19:46.518Z,91.95
2016-03-15T06:20:46.301Z,91.99
2016-03-15T06:21:46.239Z,91.85
2016-03-15T06:22:46.240Z,91.71
2016-03-15T06:23:46.415Z,91.8
2016-03-15T06:24:46.963Z,91.8
2016-03-15T06:25:46.543Z,91.8
2016-03-15T06:26:46.202Z,91.71
2016-03-15T06:27:46.376Z,91.61
2016-03-15T06:28:46.379Z,92.28
2016-03-15T06:29:46.179Z,91.71
2016-03-15T06:30:46.165Z,91.99
2016-03-15T06:31:46.153Z,92.09
2016-03-15T06:32:46.156Z,91.99
2016-03-15T06:33:46.142Z,92.09
2016-03-15T06:34:46.131Z,91.99
2016-03-15T06:35:46.133Z,92.09
2016-03-15T06:36:46.120Z,92.09
2016-03-15T06:37:46.091Z,92.28
2016-03-15T06:38:46.094Z,92.38
2016-03-15T06:39:46.080Z,92.47
2016-03-15T06:40:46.083Z,92.57
2016-03-15T06:41:46.070Z,92.66
2016-03-15T06:42:46.057Z,92.57
2016-03-15T06:43:46.061Z,92.66
2016-03-15T06:44:46.047Z,92.18
2016-03-15T06:45:46.019Z,92.76
2016-03-15T06:46:46.021Z,92.76
2016-03-15T06:47:46.024Z,92.85
2016-03-15T06:48:45.996Z,92.57
2016-03-15T06:49:46.013Z,92.42
2016-03-15T06:50:45.985Z,92.57
2016-03-15T06:51:45.971Z,92.57
2016-03-15T06:52:45.974Z,92.57
2016-03-15T06:53:45.962Z,92.28
2016-03-15T06:54:45.965Z,92.57
2016-03-15T06:55:45.951Z,92.71
2016-03-15T06:56:45.954Z,92.52
2016-03-15T06:57:45.926Z,92.42
2016-03-15T06:58:45.928Z,92.33
2016-03-15T06:59:45.931Z,92.52
2016-03-15T07:00:45.903Z,92.42
2016-03-15T07:01:45.906Z,92.56
2016-03-15T07:02:45.893Z,92.47
2016-03-15T07:03:45.895Z,92.47
2016-03-15T07:04:45.882Z,92.56
2016-03-15T07:05:45.885Z,92.75
2016-03-15T07:06:45.872Z,92.66
2016-03-15T07:07:45.879Z,92.75
2016-03-15T07:08:45.866Z,92.47
2016-03-15T07:09:45.852Z,92.37
2016-03-15T07:10:45.840Z,92.37
2016-03-15T07:11:45.827Z,92.37
2016-03-15T07:12:45.829Z,92.37
2016-03-15T07:13:45.832Z,92.28
2016-03-15T07:14:45.820Z,92.28
2016-03-15T07:15:45.807Z,92.56
2016-03-15T07:16:45.809Z,92.66
2016-03-15T07:18:45.799Z,92.61
2016-03-15T07:19:47.254Z,92.52
2016-03-15T07:20:46.132Z,92.42
2016-03-15T07:21:45.775Z,92.52
2016-03-15T07:22:45.762Z,92.42
2016-03-15T07:23:46.078Z,92.52
2016-03-15T07:24:45.753Z,92.42
2016-03-15T07:25:45.739Z,92.42
2016-03-15T07:26:47.273Z,92.42
2016-03-15T07:27:46.636Z,92.61
2016-03-15T07:28:45.732Z,92.47
2016-03-15T07:29:45.719Z,92.47
2016-03-15T07:30:45.722Z,92.56
2016-03-15T07:31:45.693Z,92.75
2016-03-15T07:32:46.196Z,92.66
2016-03-15T07:33:46.589Z,92.61
2016-03-15T07:34:45.779Z,92.71
2016-03-15T07:35:46.330Z,92.61
2016-03-15T07:36:46.316Z,92.61
2016-03-15T07:37:45.896Z,92.61
2016-03-15T07:38:45.666Z,92.71
2016-03-15T07:39:45.637Z,92.52
2016-03-15T07:40:45.639Z,92.42
2016-03-15T07:41:45.626Z,92.71
2016-03-15T07:42:46.816Z,92.14
2016-03-15T07:43:45.600Z,92.61
2016-03-15T07:44:45.604Z,92.9
2016-03-15T07:45:45.590Z,92.61
2016-03-15T07:46:45.842Z,92.61
2016-03-15T07:47:45.877Z,92.42
2016-03-15T07:48:45.582Z,92.42
2016-03-15T07:49:45.570Z,92.61
2016-03-15T07:50:45.556Z,92.52
2016-03-15T07:51:45.559Z,92.61
2016-03-15T07:52:45.547Z,92.75
2016-03-15T07:53:45.534Z,92.75
2016-03-15T07:54:45.520Z,92.61
2016-03-15T07:55:45.539Z,92.33
2016-03-15T07:56:45.510Z,92.14
2016-03-15T07:57:45.513Z,92.61
2016-03-15T07:58:45.500Z,92.61
2016-03-15T07:59:45.502Z,92.61
2016-03-15T08:00:45.475Z,92.42
2016-03-15T08:01:45.477Z,92.52
2016-03-15T08:02:45.464Z,92.71
2016-03-15T08:03:45.294Z,92.8
2016-03-15T08:04:45.438Z,92.71
2016-03-15T08:05:45.457Z,92.8
2016-03-15T08:06:45.427Z,92.52
2016-03-15T08:07:45.415Z,92.52
2016-03-15T08:08:45.432Z,92.61
2016-03-15T08:09:45.421Z,92.61
2016-03-15T08:10:45.407Z,92.33
2016-03-15T08:11:45.410Z,92.14
2016-03-15T08:12:45.382Z,92.71
2016-03-15T08:13:45.384Z,92.8
2016-03-15T08:14:45.371Z,92.9
2016-03-15T08:15:45.374Z,92.9
2016-03-15T08:16:45.345Z,92.61
2016-03-15T08:17:45.348Z,92.61
2016-03-15T08:18:45.335Z,92.61
2016-03-15T08:19:45.337Z,92.61
2016-03-15T08:20:45.326Z,92.61
2016-03-15T08:21:45.312Z,92.42
2016-03-15T08:22:45.299Z,92.71
2016-03-15T08:23:45.302Z,92.8
2016-03-15T08:24:45.304Z,92.52
2016-03-15T08:25:45.291Z,92.61
2016-03-15T08:26:45.278Z,92.42
2016-03-15T08:27:45.266Z,92.42
2016-03-15T08:28:45.252Z,92.9
2016-03-15T08:29:45.240Z,92.61
2016-03-15T08:30:45.242Z,92.8
2016-03-15T08:31:45.229Z,92.9
2016-03-15T08:32:45.233Z,92.9
2016-03-15T08:33:45.235Z,92.61
2016-03-15T08:34:45.221Z,92.71
2016-03-15T08:35:45.209Z,92.52
2016-03-15T08:36:45.196Z,92.61
2016-03-15T08:37:45.199Z,92.61
2016-03-15T08:38:45.171Z,92.42
2016-03-15T08:39:46.219Z,92.61
2016-03-15T08:40:45.160Z,92.8
2016-03-15T08:41:45.147Z,92.9
2016-03-15T08:42:45.149Z,92.42
2016-03-15T08:43:45.121Z,92.9
2016-03-15T08:44:45.124Z,92.71
2016-03-15T08:45:45.970Z,92.61
2016-03-15T08:47:45.570Z,92.61
2016-03-15T08:48:46.119Z,92.61
2016-03-15T08:49:45.091Z,92.61
2016-03-15T08:50:45.687Z,92.61
2016-03-15T08:52:59.629Z,92.61
2016-03-15T08:54:45.056Z,92.61
2016-03-15T08:55:45.045Z,92.61
2016-03-15T08:56:45.031Z,92.9
2016-03-15T08:57:45.033Z,92.61
2016-03-15T08:58:45.005Z,92.61
2016-03-15T08:59:45.023Z,92.61
2016-03-15T09:00:45.011Z,92.61
2016-03-15T09:01:45.153Z,92.71
2016-03-15T09:03:59.925Z,92.61
2016-03-15T09:04:45.569Z,92.61
2016-03-15T09:05:44.961Z,92.52
2016-03-15T09:06:45.152Z,92.42
2016-03-15T09:07:45.108Z,92.52
2016-03-15T09:08:44.938Z,92.61
2016-03-15T09:09:44.940Z,92.52
2016-03-15T09:10:44.928Z,92.56
2016-03-15T09:11:44.930Z,92.56
2016-03-15T09:12:44.918Z,92.56
2016-03-15T09:13:44.905Z,92.71
2016-03-15T09:14:44.907Z,92.61
2016-03-15T09:15:44.895Z,92.61
2016-03-15T09:16:44.882Z,92.71
2016-03-15T09:17:44.868Z,92.61
2016-03-15T09:18:44.856Z,92.71
2016-03-15T09:19:44.859Z,92.61
2016-03-15T09:20:44.861Z,92.71
2016-03-15T09:21:44.849Z,92.71
2016-03-15T09:22:44.851Z,92.52
2016-03-15T09:23:44.822Z,92.42
2016-03-15T09:24:44.873Z,92.33
2016-03-15T09:25:44.797Z,92.33
2016-03-15T09:26:44.799Z,92.33
2016-03-15T09:27:44.786Z,92.33
2016-03-15T09:28:44.789Z,92.14
2016-03-15T09:29:44.760Z,92.33
2016-03-15T09:30:44.764Z,92.04
2016-03-15T09:31:44.766Z,92.52
2016-03-15T09:32:44.752Z,91.94
2016-03-15T09:33:44.740Z,91.85
2016-03-15T09:34:44.742Z,91.66
2016-03-15T09:35:44.729Z,91.75
2016-03-15T09:36:44.733Z,91.75
2016-03-15T09:37:44.704Z,91.75
2016-03-15T09:38:44.707Z,91.66
2016-03-15T09:39:44.694Z,91.85
2016-03-15T09:40:44.696Z,91.85
2016-03-15T09:41:44.668Z,91.85
2016-03-15T09:42:44.671Z,91.9
2016-03-15T09:43:44.673Z,91.8
2016-03-15T09:44:44.660Z,91.9
2016-03-15T09:45:44.662Z,91.9
2016-03-15T09:46:44.479Z,91.9
2016-03-15T09:47:44.621Z,91.94
2016-03-15T09:48:44.623Z,91.94
2016-03-15T09:49:44.627Z,91.94
2016-03-15T09:50:44.614Z,91.75
2016-03-15T09:51:44.600Z,91.75
2016-03-15T09:52:44.573Z,91.9
2016-03-15T09:53:44.575Z,91.8
2016-03-15T09:54:44.562Z,91.8
2016-03-15T09:55:45.393Z,91.75
2016-03-15T09:56:45.801Z,91.75
2016-03-15T09:57:45.414Z,91.8
2016-03-15T09:58:44.542Z,91.75
2016-03-15T09:59:45.216Z,91.85
2016-03-15T10:00:44.516Z,92.23
2016-03-15T10:01:44.519Z,91.75
2016-03-15T10:02:44.505Z,91.94
2016-03-15T10:03:44.492Z,91.75
2016-03-15T10:04:45.839Z,91.75
2016-03-15T10:05:44.825Z,91.75
2016-03-15T10:06:44.469Z,91.85
2016-03-15T10:07:44.472Z,91.85
2016-03-15T10:08:44.448Z,92.14
2016-03-15T10:09:44.451Z,92.04
2016-03-15T10:10:44.938Z,92.04
2016-03-15T10:11:45.269Z,91.66
2016-03-15T10:12:44.412Z,91.94
2016-03-15T10:13:45.509Z,91.85
2016-03-15T10:14:44.402Z,92.09
2016-03-15T10:15:44.404Z,91.99
2016-03-15T10:16:44.392Z,91.99
2016-03-15T10:17:44.379Z,91.99
2016-03-15T10:18:44.381Z,91.71
2016-03-15T10:19:44.353Z,91.8
2016-03-15T10:21:44.389Z,91.38
2016-03-15T10:22:44.626Z,91.38
2016-03-15T10:23:44.332Z,91.75
2016-03-15T10:24:44.320Z,91.94
2016-03-15T10:25:44.306Z,91.94
2016-03-15T10:26:44.294Z,91.94
2016-03-15T10:27:44.297Z,92.04
2016-03-15T10:28:44.299Z,92.04
2016-03-15T10:29:44.270Z,91.94
2016-03-15T10:30:44.273Z,91.94
2016-03-15T10:31:44.260Z,91.85
2016-03-15T10:32:44.263Z,91.94
2016-03-15T10:33:44.234Z,91.94
2016-03-15T10:34:44.236Z,91.94
2016-03-15T10:35:44.239Z,92.23
2016-03-15T10:36:44.211Z,92.04
2016-03-15T10:37:44.213Z,92.14
2016-03-15T10:38:44.201Z,91.75
2016-03-15T10:39:44.188Z,91.94
2016-03-15T10:40:44.191Z,91.94
2016-03-15T10:41:44.162Z,91.85
2016-03-15T10:42:44.180Z,92.14
2016-03-15T10:43:44.168Z,91.94
2016-03-15T10:44:44.154Z,92.14
2016-03-15T10:45:44.141Z,92.14
2016-03-15T10:46:44.129Z,91.85
2016-03-15T10:47:44.131Z,92.14
2016-03-15T10:48:44.104Z,92.04
2016-03-15T10:49:44.106Z,92.14
2016-03-15T10:50:44.108Z,92.04
2016-03-15T10:51:44.111Z,91.75
2016-03-15T10:52:44.082Z,91.85
2016-03-15T10:53:44.084Z,91.94
2016-03-15T10:54:44.119Z,91.94
2016-03-15T10:55:44.059Z,91.75
2016-03-15T10:56:44.078Z,92.04
2016-03-15T10:57:44.033Z,92.04
2016-03-15T10:58:44.036Z,92.04
2016-03-15T10:59:44.023Z,92.04
2016-03-15T11:00:44.025Z,91.85
2016-03-15T11:01:44.013Z,92.14
2016-03-15T11:02:44.015Z,92.04
2016-03-15T11:03:43.987Z,91.94
2016-03-15T11:04:44.006Z,92.04
2016-03-15T11:05:43.977Z,91.85
2016-03-15T11:06:43.964Z,91.85
2016-03-15T11:07:43.950Z,91.94
2016-03-15T11:08:43.953Z,91.75
2016-03-15T11:09:43.940Z,91.66
2016-03-15T11:10:43.943Z,92.23
2016-03-15T11:11:43.915Z,91.94
2016-03-15T11:12:43.918Z,92.04
2016-03-15T11:13:43.905Z,92.04
2016-03-15T11:14:44.751Z,91.8
2016-03-15T11:15:43.893Z,92.14
2016-03-15T11:16:43.881Z,91.99
2016-03-15T11:17:43.868Z,91.8
2016-03-15T11:18:44.042Z,92.09
2016-03-15T11:19:43.952Z,91.8
2016-03-15T11:20:43.860Z,91.99
2016-03-15T11:21:43.848Z,91.8
2016-03-15T11:22:43.835Z,91.89
2016-03-15T11:23:43.837Z,91.89
2016-03-15T11:24:44.621Z,91.99
2016-03-15T11:25:44.498Z,92.09
2016-03-15T11:26:43.798Z,92.09
2016-03-15T11:27:43.801Z,92.28
2016-03-15T11:28:44.570Z,91.99
2016-03-15T11:29:58.166Z,92.09
2016-03-15T11:30:43.981Z,91.8
2016-03-15T11:31:43.984Z,91.71
2016-03-15T11:32:44.314Z,91.24
2016-03-15T11:33:44.036Z,91.24
2016-03-15T11:34:44.086Z,91.33
2016-03-15T11:35:43.885Z,91.14
2016-03-15T11:36:43.748Z,91.24
2016-03-15T11:37:43.735Z,90.57
2016-03-15T11:38:43.722Z,91.04
2016-03-15T11:39:44.616Z,90.85
2016-03-15T11:40:43.696Z,90.95
2016-03-15T11:41:43.714Z,90.66
2016-03-15T11:42:43.685Z,91.09
2016-03-15T11:43:43.688Z,90.47
2016-03-15T11:44:43.675Z,90.24
2016-03-15T11:45:43.662Z,90.52
2016-03-15T11:46:43.649Z,90.14
2016-03-15T11:47:43.652Z,89.76
2016-03-15T11:48:43.639Z,90.33
2016-03-15T11:49:43.642Z,90.43
2016-03-15T11:50:43.629Z,90.62
2016-03-15T11:51:43.631Z,89.95
2016-03-15T11:52:43.619Z,89.67
2016-03-15T11:53:43.606Z,89.58
2016-03-15T11:54:43.608Z,90.05
2016-03-15T11:55:43.580Z,90.43
2016-03-15T11:56:43.582Z,90
2016-03-15T11:57:43.569Z,89.72
2016-03-15T11:58:43.556Z,90
2016-03-15T11:59:43.544Z,89.72
2016-03-15T12:00:43.562Z,90
2016-03-15T12:01:43.549Z,89.62
2016-03-15T12:02:43.536Z,90
2016-03-15T12:03:43.523Z,89.62
2016-03-15T12:04:44.010Z,89.33
2016-03-15T12:05:43.513Z,89.53
2016-03-15T12:06:43.531Z,88.57
2016-03-15T12:07:43.502Z,88.76
2016-03-15T12:08:43.506Z,88.53
2016-03-15T12:09:43.492Z,89
2016-03-15T12:10:43.479Z,88.43
2016-03-15T12:11:43.467Z,89
2016-03-15T12:12:43.469Z,89.28
2016-03-15T12:13:43.456Z,89
2016-03-15T12:14:43.443Z,89.52
2016-03-15T12:15:43.430Z,89.76
2016-03-15T12:16:43.449Z,89.23
2016-03-15T12:17:43.435Z,89.23
2016-03-15T12:18:43.438Z,88.62
2016-03-15T12:19:43.441Z,88.34
2016-03-15T12:20:43.428Z,87.48
2016-03-15T12:21:43.415Z,87.48
2016-03-15T12:22:43.418Z,87.29
2016-03-15T12:23:43.404Z,87.1
2016-03-15T12:24:43.408Z,87.48
2016-03-15T12:25:43.379Z,87.29
2016-03-15T12:26:43.397Z,87.95
2016-03-15T12:27:43.370Z,87.1
2016-03-15T12:28:43.372Z,87.57
2016-03-15T12:29:43.358Z,87.57
2016-03-15T12:30:43.362Z,87.67
2016-03-15T12:31:43.348Z,87.76
2016-03-15T12:32:43.351Z,87.1
2016-03-15T12:33:44.478Z,87.57
2016-03-15T12:34:44.981Z,87.57
2016-03-15T12:35:44.906Z,87.38
2016-03-15T12:36:44.064Z,87.19
2016-03-15T12:37:43.317Z,87.1
2016-03-15T12:38:43.320Z,87.29
2016-03-15T12:39:43.291Z,86.63
2016-03-15T12:40:43.295Z,87.29
2016-03-15T12:41:43.375Z,87.57
2016-03-15T12:42:44.205Z,87.67
2016-03-15T12:43:43.975Z,87.48
2016-03-15T12:44:43.274Z,87.38
2016-03-15T12:45:43.667Z,87.76
2016-03-15T12:46:44.061Z,87.67
2016-03-15T12:47:43.719Z,87.67
2016-03-15T12:49:45.116Z,87.38
2016-03-15T12:50:44.227Z,87.76
2016-03-15T12:51:43.215Z,87.67
2016-03-15T12:52:43.717Z,87.57
2016-03-15T12:53:43.673Z,87.48
2016-03-15T12:54:43.206Z,87.38
2016-03-15T12:55:43.210Z,87.01
2016-03-15T12:56:43.198Z,85.58
2016-03-15T12:57:43.184Z,85.39
2016-03-15T12:58:43.171Z,84.82
2016-03-15T12:59:44.331Z,84.72
2016-03-15T13:00:43.161Z,84.72
2016-03-15T13:01:43.164Z,85.39
2016-03-15T13:02:43.447Z,84.72
2016-03-15T13:03:43.153Z,85.86
2016-03-15T13:04:43.140Z,85.49
2016-03-15T13:05:43.143Z,85.2
2016-03-15T13:06:43.130Z,84.34
2016-03-15T13:07:43.116Z,84.87
2016-03-15T13:08:43.104Z,85.25
2016-03-15T13:09:43.091Z,85.01